sensor_id;sensor_type;location;lat;lon;timestamp;P1;durP1;ratioP1;P2;durP2;ratioP2
83290;SDS011;73860;48.866;9.316;2023-12-04T00:00:06;44.80;;;19.40;;
83290;SDS011;73860;48.866;9.316;2023-12-04T00:02:36;41.50;;;23.60;;
83290;SDS011;73860;48.866;9.316;2023-12-04T00:05:07;39.70;;;19.70;;
83290;SDS011;73860;48.866;9.316;2023-12-04T00:07:36;27.60;;;13.90;;
83290;SDS011;73860;48.866;9.316;2023-12-04T00:10:06;27.20;;;15.30;;
83290;SDS011;73860;48.866;9.316;2023-12-04T00:12:36;21.90;;;11.40;;
83290;SDS011;73860;48.866;9.316;2023-12-04T00:15:06;23.10;;;11.50;;
83290;SDS011;73860;48.866;9.316;2023-12-04T00:17:36;22.70;;;10.90;;
83290;SDS011;73860;48.866;9.316;2023-12-04T00:20:07;21.40;;;10.50;;
83290;SDS011;73860;48.866;9.316;2023-12-04T00:22:37;21.50;;;10.90;;
83290;SDS011;73860;48.866;9.316;2023-12-04T00:25:07;20.50;;;10.80;;
83290;SDS011;73860;48.866;9.316;2023-12-04T00:27:36;20.20;;;12.20;;
83290;SDS011;73860;48.866;9.316;2023-12-04T00:30:06;25.10;;;12.30;;
83290;SDS011;73860;48.866;9.316;2023-12-04T00:32:36;19.90;;;11.30;;
83290;SDS011;73860;48.866;9.316;2023-12-04T00:35:06;20.50;;;9.70;;
83290;SDS011;73860;48.866;9.316;2023-12-04T00:37:36;21.00;;;11.50;;
83290;SDS011;73860;48.866;9.316;2023-12-04T00:40:06;19.60;;;10.80;;
83290;SDS011;73860;48.866;9.316;2023-12-04T00:42:36;22.30;;;11.30;;
83290;SDS011;73860;48.866;9.316;2023-12-04T00:45:06;22.10;;;11.70;;
83290;SDS011;73860;48.866;9.316;2023-12-04T00:47:36;23.00;;;10.90;;
83290;SDS011;73860;48.866;9.316;2023-12-04T00:50:06;22.50;;;11.60;;
83290;SDS011;73860;48.866;9.316;2023-12-04T00:52:36;21.40;;;10.80;;
83290;SDS011;73860;48.866;9.316;2023-12-04T00:55:06;19.80;;;9.80;;
83290;SDS011;73860;48.866;9.316;2023-12-04T00:57:36;39.80;;;18.30;;
83290;SDS011;73860;48.866;9.316;2023-12-04T01:00:06;49.10;;;23.60;;
83290;SDS011;73860;48.866;9.316;2023-12-04T01:02:36;34.70;;;18.30;;
83290;SDS011;73860;48.866;9.316;2023-12-04T01:05:06;24.00;;;12.90;;
83290;SDS011;73860;48.866;9.316;2023-12-04T01:07:35;24.90;;;12.40;;
83290;SDS011;73860;48.866;9.316;2023-12-04T01:10:05;22.30;;;11.40;;
83290;SDS011;73860;48.866;9.316;2023-12-04T01:12:34;21.30;;;10.90;;
83290;SDS011;73860;48.866;9.316;2023-12-04T01:15:05;19.50;;;9.20;;
83290;SDS011;73860;48.866;9.316;2023-12-04T01:17:35;18.90;;;10.10;;
83290;SDS011;73860;48.866;9.316;2023-12-04T01:20:05;18.40;;;9.80;;
83290;SDS011;73860;48.866;9.316;2023-12-04T01:22:35;20.80;;;10.30;;
83290;SDS011;73860;48.866;9.316;2023-12-04T01:25:05;21.40;;;10.90;;
83290;SDS011;73860;48.866;9.316;2023-12-04T01:27:35;20.70;;;11.10;;
83290;SDS011;73860;48.866;9.316;2023-12-04T01:30:06;21.10;;;9.80;;
83290;SDS011;73860;48.866;9.316;2023-12-04T01:32:36;20.70;;;11.00;;
83290;SDS011;73860;48.866;9.316;2023-12-04T01:35:06;16.90;;;9.50;;
83290;SDS011;73860;48.866;9.316;2023-12-04T01:37:36;18.80;;;9.50;;
83290;SDS011;73860;48.866;9.316;2023-12-04T01:40:07;18.60;;;9.10;;
83290;SDS011;73860;48.866;9.316;2023-12-04T01:42:37;18.60;;;8.60;;
83290;SDS011;73860;48.866;9.316;2023-12-04T01:45:07;19.00;;;10.20;;
83290;SDS011;73860;48.866;9.316;2023-12-04T01:47:37;19.90;;;9.90;;
83290;SDS011;73860;48.866;9.316;2023-12-04T01:50:07;20.10;;;9.70;;
83290;SDS011;73860;48.866;9.316;2023-12-04T01:52:37;18.30;;;8.80;;
83290;SDS011;73860;48.866;9.316;2023-12-04T01:55:07;21.80;;;9.60;;
83290;SDS011;73860;48.866;9.316;2023-12-04T01:57:37;17.80;;;9.30;;
83290;SDS011;73860;48.866;9.316;2023-12-04T02:00:07;19.80;;;9.50;;
83290;SDS011;73860;48.866;9.316;2023-12-04T02:02:38;20.70;;;10.60;;
83290;SDS011;73860;48.866;9.316;2023-12-04T02:05:08;18.90;;;10.10;;
83290;SDS011;73860;48.866;9.316;2023-12-04T02:07:37;49.60;;;20.50;;
83290;SDS011;73860;48.866;9.316;2023-12-04T02:10:08;40.80;;;20.90;;
83290;SDS011;73860;48.866;9.316;2023-12-04T02:12:37;31.30;;;16.00;;
83290;SDS011;73860;48.866;9.316;2023-12-04T02:15:07;23.70;;;13.40;;
83290;SDS011;73860;48.866;9.316;2023-12-04T02:17:37;22.90;;;11.10;;
83290;SDS011;73860;48.866;9.316;2023-12-04T02:20:08;23.80;;;10.20;;
83290;SDS011;73860;48.866;9.316;2023-12-04T02:22:38;35.20;;;16.80;;
83290;SDS011;73860;48.866;9.316;2023-12-04T02:25:08;30.40;;;14.70;;
83290;SDS011;73860;48.866;9.316;2023-12-04T02:27:40;28.60;;;14.60;;
83290;SDS011;73860;48.866;9.316;2023-12-04T02:30:11;27.80;;;13.00;;
83290;SDS011;73860;48.866;9.316;2023-12-04T02:32:43;26.00;;;11.90;;
83290;SDS011;73860;48.866;9.316;2023-12-04T02:35:14;22.40;;;11.00;;
83290;SDS011;73860;48.866;9.316;2023-12-04T02:37:44;20.70;;;10.00;;
83290;SDS011;73860;48.866;9.316;2023-12-04T02:40:13;21.20;;;10.90;;
83290;SDS011;73860;48.866;9.316;2023-12-04T02:42:43;21.60;;;10.70;;
83290;SDS011;73860;48.866;9.316;2023-12-04T02:45:13;19.80;;;9.40;;
83290;SDS011;73860;48.866;9.316;2023-12-04T02:47:42;18.50;;;8.70;;
83290;SDS011;73860;48.866;9.316;2023-12-04T02:50:11;18.00;;;8.90;;
83290;SDS011;73860;48.866;9.316;2023-12-04T02:52:40;16.10;;;8.90;;
83290;SDS011;73860;48.866;9.316;2023-12-04T02:55:09;17.40;;;8.00;;
83290;SDS011;73860;48.866;9.316;2023-12-04T02:57:38;16.60;;;7.60;;
83290;SDS011;73860;48.866;9.316;2023-12-04T03:00:09;15.90;;;7.30;;
83290;SDS011;73860;48.866;9.316;2023-12-04T03:02:39;17.20;;;7.30;;
83290;SDS011;73860;48.866;9.316;2023-12-04T03:05:08;20.50;;;9.00;;
83290;SDS011;73860;48.866;9.316;2023-12-04T03:07:37;47.20;;;21.80;;
83290;SDS011;73860;48.866;9.316;2023-12-04T03:10:07;43.40;;;22.80;;
83290;SDS011;73860;48.866;9.316;2023-12-04T03:12:37;38.40;;;20.70;;
83290;SDS011;73860;48.866;9.316;2023-12-04T03:15:07;30.80;;;15.60;;
83290;SDS011;73860;48.866;9.316;2023-12-04T03:17:38;24.90;;;13.50;;
83290;SDS011;73860;48.866;9.316;2023-12-04T03:20:08;29.40;;;16.00;;
83290;SDS011;73860;48.866;9.316;2023-12-04T03:22:39;24.40;;;12.50;;
83290;SDS011;73860;48.866;9.316;2023-12-04T03:25:08;22.80;;;12.20;;
83290;SDS011;73860;48.866;9.316;2023-12-04T03:27:37;20.50;;;11.10;;
83290;SDS011;73860;48.866;9.316;2023-12-04T03:30:08;16.80;;;10.00;;
83290;SDS011;73860;48.866;9.316;2023-12-04T03:32:38;17.30;;;8.70;;
83290;SDS011;73860;48.866;9.316;2023-12-04T03:35:07;21.50;;;14.90;;
83290;SDS011;73860;48.866;9.316;2023-12-04T03:37:37;23.30;;;13.10;;
83290;SDS011;73860;48.866;9.316;2023-12-04T03:40:07;15.10;;;7.90;;
83290;SDS011;73860;48.866;9.316;2023-12-04T03:42:37;15.90;;;7.70;;
83290;SDS011;73860;48.866;9.316;2023-12-04T03:45:08;16.10;;;8.20;;
83290;SDS011;73860;48.866;9.316;2023-12-04T03:47:38;15.60;;;8.60;;
83290;SDS011;73860;48.866;9.316;2023-12-04T03:50:07;16.10;;;8.50;;
83290;SDS011;73860;48.866;9.316;2023-12-04T03:52:37;17.00;;;8.50;;
83290;SDS011;73860;48.866;9.316;2023-12-04T03:55:07;16.40;;;8.60;;
83290;SDS011;73860;48.866;9.316;2023-12-04T03:57:37;16.00;;;7.80;;
83290;SDS011;73860;48.866;9.316;2023-12-04T04:00:08;17.20;;;8.60;;
83290;SDS011;73860;48.866;9.316;2023-12-04T04:02:39;20.80;;;8.00;;
83290;SDS011;73860;48.866;9.316;2023-12-04T04:05:09;15.60;;;8.00;;
83290;SDS011;73860;48.866;9.316;2023-12-04T04:07:38;41.50;;;19.00;;
83290;SDS011;73860;48.866;9.316;2023-12-04T04:10:08;39.70;;;19.10;;
83290;SDS011;73860;48.866;9.316;2023-12-04T04:12:38;29.40;;;16.40;;
83290;SDS011;73860;48.866;9.316;2023-12-04T04:15:08;25.30;;;12.20;;
83290;SDS011;73860;48.866;9.316;2023-12-04T04:17:38;22.10;;;11.70;;
83290;SDS011;73860;48.866;9.316;2023-12-04T04:20:08;15.00;;;8.80;;
83290;SDS011;73860;48.866;9.316;2023-12-04T04:26:00;15.90;;;8.90;;
83290;SDS011;73860;48.866;9.316;2023-12-04T04:28:30;16.60;;;8.20;;
83290;SDS011;73860;48.866;9.316;2023-12-04T04:30:59;17.80;;;10.20;;
83290;SDS011;73860;48.866;9.316;2023-12-04T04:33:28;14.80;;;8.00;;
83290;SDS011;73860;48.866;9.316;2023-12-04T04:35:57;14.70;;;7.80;;
83290;SDS011;73860;48.866;9.316;2023-12-04T04:38:26;13.10;;;7.60;;
83290;SDS011;73860;48.866;9.316;2023-12-04T04:40:55;12.60;;;6.70;;
83290;SDS011;73860;48.866;9.316;2023-12-04T04:43:24;13.60;;;6.40;;
83290;SDS011;73860;48.866;9.316;2023-12-04T04:49:16;11.80;;;5.70;;
83290;SDS011;73860;48.866;9.316;2023-12-04T04:51:45;12.70;;;6.90;;
83290;SDS011;73860;48.866;9.316;2023-12-04T04:54:14;12.60;;;6.40;;
83290;SDS011;73860;48.866;9.316;2023-12-04T04:56:43;15.80;;;7.80;;
83290;SDS011;73860;48.866;9.316;2023-12-04T04:59:12;15.40;;;8.00;;
83290;SDS011;73860;48.866;9.316;2023-12-04T05:01:41;14.60;;;7.10;;
83290;SDS011;73860;48.866;9.316;2023-12-04T05:04:10;14.70;;;8.20;;
83290;SDS011;73860;48.866;9.316;2023-12-04T05:06:39;13.60;;;7.00;;
83290;SDS011;73860;48.866;9.316;2023-12-04T05:09:08;35.60;;;16.60;;
83290;SDS011;73860;48.866;9.316;2023-12-04T05:11:37;34.30;;;17.70;;
83290;SDS011;73860;48.866;9.316;2023-12-04T05:14:06;23.30;;;11.70;;
83290;SDS011;73860;48.866;9.316;2023-12-04T05:16:35;20.40;;;10.30;;
83290;SDS011;73860;48.866;9.316;2023-12-04T05:19:04;19.90;;;10.00;;
83290;SDS011;73860;48.866;9.316;2023-12-04T05:21:34;17.00;;;8.40;;
83290;SDS011;73860;48.866;9.316;2023-12-04T05:24:03;16.50;;;8.30;;
83290;SDS011;73860;48.866;9.316;2023-12-04T05:26:33;15.50;;;8.90;;
83290;SDS011;73860;48.866;9.316;2023-12-04T05:29:02;15.00;;;8.60;;
83290;SDS011;73860;48.866;9.316;2023-12-04T05:31:31;15.30;;;9.10;;
83290;SDS011;73860;48.866;9.316;2023-12-04T05:34:00;16.00;;;9.10;;
83290;SDS011;73860;48.866;9.316;2023-12-04T05:36:29;18.10;;;11.20;;
83290;SDS011;73860;48.866;9.316;2023-12-04T05:38:58;16.60;;;10.00;;
83290;SDS011;73860;48.866;9.316;2023-12-04T05:41:27;16.30;;;9.00;;
83290;SDS011;73860;48.866;9.316;2023-12-04T05:43:56;14.90;;;8.20;;
83290;SDS011;73860;48.866;9.316;2023-12-04T05:46:25;12.80;;;7.70;;
83290;SDS011;73860;48.866;9.316;2023-12-04T05:48:55;12.50;;;6.10;;
83290;SDS011;73860;48.866;9.316;2023-12-04T05:51:24;13.40;;;7.00;;
83290;SDS011;73860;48.866;9.316;2023-12-04T05:53:53;15.10;;;6.50;;
83290;SDS011;73860;48.866;9.316;2023-12-04T05:56:22;13.40;;;6.70;;
83290;SDS011;73860;48.866;9.316;2023-12-04T05:58:51;13.50;;;7.10;;
83290;SDS011;73860;48.866;9.316;2023-12-04T06:01:20;15.40;;;7.30;;
83290;SDS011;73860;48.866;9.316;2023-12-04T06:03:50;12.00;;;5.70;;
83290;SDS011;73860;48.866;9.316;2023-12-04T06:06:19;24.50;;;12.60;;
83290;SDS011;73860;48.866;9.316;2023-12-04T06:08:48;25.50;;;12.60;;
83290;SDS011;73860;48.866;9.316;2023-12-04T06:11:17;18.10;;;8.90;;
83290;SDS011;73860;48.866;9.316;2023-12-04T06:13:46;15.40;;;7.50;;
83290;SDS011;73860;48.866;9.316;2023-12-04T06:16:16;14.50;;;7.00;;
83290;SDS011;73860;48.866;9.316;2023-12-04T06:18:45;13.80;;;7.50;;
83290;SDS011;73860;48.866;9.316;2023-12-04T06:21:14;14.40;;;7.10;;
83290;SDS011;73860;48.866;9.316;2023-12-04T06:23:44;15.00;;;7.30;;
83290;SDS011;73860;48.866;9.316;2023-12-04T06:26:14;11.60;;;6.10;;
83290;SDS011;73860;48.866;9.316;2023-12-04T06:28:45;12.90;;;6.20;;
83290;SDS011;73860;48.866;9.316;2023-12-04T06:31:15;13.10;;;6.10;;
83290;SDS011;73860;48.866;9.316;2023-12-04T06:33:46;14.00;;;7.00;;
83290;SDS011;73860;48.866;9.316;2023-12-04T06:36:15;13.40;;;6.70;;
83290;SDS011;73860;48.866;9.316;2023-12-04T06:38:46;11.90;;;5.50;;
83290;SDS011;73860;48.866;9.316;2023-12-04T06:41:16;13.10;;;6.20;;
83290;SDS011;73860;48.866;9.316;2023-12-04T06:43:48;10.20;;;4.40;;
83290;SDS011;73860;48.866;9.316;2023-12-04T06:46:17;11.30;;;5.20;;
83290;SDS011;73860;48.866;9.316;2023-12-04T06:48:49;10.00;;;4.80;;
83290;SDS011;73860;48.866;9.316;2023-12-04T06:51:21;13.60;;;6.30;;
83290;SDS011;73860;48.866;9.316;2023-12-04T06:53:50;11.70;;;6.10;;
83290;SDS011;73860;48.866;9.316;2023-12-04T06:56:19;11.40;;;5.60;;
83290;SDS011;73860;48.866;9.316;2023-12-04T06:58:48;12.80;;;6.00;;
83290;SDS011;73860;48.866;9.316;2023-12-04T07:01:17;10.20;;;5.00;;
83290;SDS011;73860;48.866;9.316;2023-12-04T07:03:48;12.60;;;6.30;;
83290;SDS011;73860;48.866;9.316;2023-12-04T07:06:17;20.90;;;10.40;;
83290;SDS011;73860;48.866;9.316;2023-12-04T07:08:46;19.90;;;10.70;;
83290;SDS011;73860;48.866;9.316;2023-12-04T07:11:15;15.60;;;7.80;;
83290;SDS011;73860;48.866;9.316;2023-12-04T07:13:44;16.20;;;7.70;;
83290;SDS011;73860;48.866;9.316;2023-12-04T07:16:13;13.90;;;6.60;;
83290;SDS011;73860;48.866;9.316;2023-12-04T07:18:43;14.30;;;7.20;;
83290;SDS011;73860;48.866;9.316;2023-12-04T07:21:12;12.20;;;6.20;;
83290;SDS011;73860;48.866;9.316;2023-12-04T07:23:41;15.00;;;7.30;;
83290;SDS011;73860;48.866;9.316;2023-12-04T07:26:11;16.40;;;9.20;;
83290;SDS011;73860;48.866;9.316;2023-12-04T07:28:40;16.30;;;8.00;;
83290;SDS011;73860;48.866;9.316;2023-12-04T07:34:31;17.90;;;9.00;;
83290;SDS011;73860;48.866;9.316;2023-12-04T07:37:00;17.30;;;9.50;;
83290;SDS011;73860;48.866;9.316;2023-12-04T07:39:29;15.60;;;8.20;;
83290;SDS011;73860;48.866;9.316;2023-12-04T07:41:59;15.10;;;8.00;;
83290;SDS011;73860;48.866;9.316;2023-12-04T07:44:28;17.00;;;10.20;;
83290;SDS011;73860;48.866;9.316;2023-12-04T07:46:57;16.60;;;10.90;;
83290;SDS011;73860;48.866;9.316;2023-12-04T07:49:26;17.40;;;9.40;;
83290;SDS011;73860;48.866;9.316;2023-12-04T07:51:55;15.50;;;8.90;;
83290;SDS011;73860;48.866;9.316;2023-12-04T07:54:24;17.10;;;9.40;;
83290;SDS011;73860;48.866;9.316;2023-12-04T07:56:54;17.60;;;9.00;;
83290;SDS011;73860;48.866;9.316;2023-12-04T07:59:23;14.20;;;7.50;;
83290;SDS011;73860;48.866;9.316;2023-12-04T08:01:52;13.60;;;6.30;;
83290;SDS011;73860;48.866;9.316;2023-12-04T08:04:21;12.70;;;5.80;;
83290;SDS011;73860;48.866;9.316;2023-12-04T08:06:50;20.50;;;9.60;;
83290;SDS011;73860;48.866;9.316;2023-12-04T08:09:20;23.90;;;12.20;;
83290;SDS011;73860;48.866;9.316;2023-12-04T08:11:49;20.10;;;10.20;;
83290;SDS011;73860;48.866;9.316;2023-12-04T08:14:18;15.20;;;7.50;;
83290;SDS011;73860;48.866;9.316;2023-12-04T08:16:48;14.10;;;7.10;;
83290;SDS011;73860;48.866;9.316;2023-12-04T08:19:17;14.30;;;7.20;;
83290;SDS011;73860;48.866;9.316;2023-12-04T08:21:47;13.30;;;6.70;;
83290;SDS011;73860;48.866;9.316;2023-12-04T08:24:16;12.50;;;6.40;;
83290;SDS011;73860;48.866;9.316;2023-12-04T08:26:45;13.90;;;6.50;;
83290;SDS011;73860;48.866;9.316;2023-12-04T08:29:15;14.20;;;6.90;;
83290;SDS011;73860;48.866;9.316;2023-12-04T08:31:44;11.90;;;6.10;;
83290;SDS011;73860;48.866;9.316;2023-12-04T08:34:13;13.60;;;6.30;;
83290;SDS011;73860;48.866;9.316;2023-12-04T08:36:43;14.40;;;7.40;;
83290;SDS011;73860;48.866;9.316;2023-12-04T08:39:12;12.30;;;6.70;;
83290;SDS011;73860;48.866;9.316;2023-12-04T08:41:43;13.00;;;6.80;;
83290;SDS011;73860;48.866;9.316;2023-12-04T08:44:14;13.10;;;5.70;;
83290;SDS011;73860;48.866;9.316;2023-12-04T08:46:44;11.90;;;6.30;;
83290;SDS011;73860;48.866;9.316;2023-12-04T08:49:13;17.60;;;7.40;;
83290;SDS011;73860;48.866;9.316;2023-12-04T08:51:42;13.00;;;6.60;;
83290;SDS011;73860;48.866;9.316;2023-12-04T08:54:11;14.30;;;6.70;;
83290;SDS011;73860;48.866;9.316;2023-12-04T08:56:40;12.40;;;5.70;;
83290;SDS011;73860;48.866;9.316;2023-12-04T08:59:10;14.30;;;7.00;;
83290;SDS011;73860;48.866;9.316;2023-12-04T09:01:40;16.00;;;8.70;;
83290;SDS011;73860;48.866;9.316;2023-12-04T09:04:09;13.40;;;8.10;;
83290;SDS011;73860;48.866;9.316;2023-12-04T09:06:38;13.50;;;6.60;;
83290;SDS011;73860;48.866;9.316;2023-12-04T09:09:07;11.90;;;6.00;;
83290;SDS011;73860;48.866;9.316;2023-12-04T09:11:41;12.60;;;6.50;;
83290;SDS011;73860;48.866;9.316;2023-12-04T09:14:10;12.60;;;6.40;;
83290;SDS011;73860;48.866;9.316;2023-12-04T09:16:39;10.60;;;5.50;;
83290;SDS011;73860;48.866;9.316;2023-12-04T09:19:09;10.90;;;5.60;;
83290;SDS011;73860;48.866;9.316;2023-12-04T09:21:38;13.80;;;6.90;;
83290;SDS011;73860;48.866;9.316;2023-12-04T09:24:07;13.10;;;7.10;;
83290;SDS011;73860;48.866;9.316;2023-12-04T09:26:36;11.90;;;5.80;;
83290;SDS011;73860;48.866;9.316;2023-12-04T09:29:05;11.20;;;5.80;;
83290;SDS011;73860;48.866;9.316;2023-12-04T09:31:35;12.20;;;5.90;;
83290;SDS011;73860;48.866;9.316;2023-12-04T09:34:05;13.00;;;6.10;;
83290;SDS011;73860;48.866;9.316;2023-12-04T09:36:34;12.30;;;6.00;;
83290;SDS011;73860;48.866;9.316;2023-12-04T09:39:04;12.40;;;6.20;;
83290;SDS011;73860;48.866;9.316;2023-12-04T09:41:33;11.30;;;6.10;;
83290;SDS011;73860;48.866;9.316;2023-12-04T09:44:03;13.70;;;6.50;;
83290;SDS011;73860;48.866;9.316;2023-12-04T09:46:32;12.90;;;7.00;;
83290;SDS011;73860;48.866;9.316;2023-12-04T09:49:03;14.50;;;7.00;;
83290;SDS011;73860;48.866;9.316;2023-12-04T09:51:34;12.40;;;7.00;;
83290;SDS011;73860;48.866;9.316;2023-12-04T09:54:03;12.10;;;6.50;;
83290;SDS011;73860;48.866;9.316;2023-12-04T09:56:33;14.60;;;7.10;;
83290;SDS011;73860;48.866;9.316;2023-12-04T09:59:02;17.70;;;9.50;;
83290;SDS011;73860;48.866;9.316;2023-12-04T10:01:34;16.60;;;9.60;;
83290;SDS011;73860;48.866;9.316;2023-12-04T10:04:03;16.90;;;8.30;;
83290;SDS011;73860;48.866;9.316;2023-12-04T10:06:33;14.50;;;8.60;;
83290;SDS011;73860;48.866;9.316;2023-12-04T10:09:02;13.80;;;7.50;;
83290;SDS011;73860;48.866;9.316;2023-12-04T10:11:40;15.40;;;7.70;;
83290;SDS011;73860;48.866;9.316;2023-12-04T10:14:14;14.40;;;7.70;;
83290;SDS011;73860;48.866;9.316;2023-12-04T10:16:44;13.00;;;7.00;;
83290;SDS011;73860;48.866;9.316;2023-12-04T10:19:17;11.50;;;6.30;;
83290;SDS011;73860;48.866;9.316;2023-12-04T10:21:49;12.90;;;7.40;;
83290;SDS011;73860;48.866;9.316;2023-12-04T10:27:05;14.60;;;8.00;;
83290;SDS011;73860;48.866;9.316;2023-12-04T10:29:42;16.00;;;8.00;;
83290;SDS011;73860;48.866;9.316;2023-12-04T10:32:13;13.60;;;7.60;;
83290;SDS011;73860;48.866;9.316;2023-12-04T10:34:43;13.20;;;6.90;;
83290;SDS011;73860;48.866;9.316;2023-12-04T10:37:12;13.30;;;6.80;;
83290;SDS011;73860;48.866;9.316;2023-12-04T10:39:46;13.90;;;7.20;;
83290;SDS011;73860;48.866;9.316;2023-12-04T10:42:24;14.60;;;7.30;;
83290;SDS011;73860;48.866;9.316;2023-12-04T10:44:53;13.30;;;7.60;;
83290;SDS011;73860;48.866;9.316;2023-12-04T10:47:24;13.50;;;7.60;;
83290;SDS011;73860;48.866;9.316;2023-12-04T10:49:53;13.80;;;7.20;;
83290;SDS011;73860;48.866;9.316;2023-12-04T10:52:23;13.90;;;7.70;;
83290;SDS011;73860;48.866;9.316;2023-12-04T10:54:52;14.70;;;8.00;;
83290;SDS011;73860;48.866;9.316;2023-12-04T10:57:26;16.70;;;9.20;;
83290;SDS011;73860;48.866;9.316;2023-12-04T11:00:01;16.70;;;8.80;;
83290;SDS011;73860;48.866;9.316;2023-12-04T11:02:33;15.20;;;8.30;;
83290;SDS011;73860;48.866;9.316;2023-12-04T11:05:04;15.60;;;7.70;;
83290;SDS011;73860;48.866;9.316;2023-12-04T11:07:39;14.90;;;8.60;;
83290;SDS011;73860;48.866;9.316;2023-12-04T11:10:10;14.70;;;7.60;;
83290;SDS011;73860;48.866;9.316;2023-12-04T11:12:40;14.60;;;8.50;;
83290;SDS011;73860;48.866;9.316;2023-12-04T11:15:14;13.20;;;7.40;;
83290;SDS011;73860;48.866;9.316;2023-12-04T11:17:46;13.90;;;8.30;;
83290;SDS011;73860;48.866;9.316;2023-12-04T11:20:18;13.80;;;7.40;;
83290;SDS011;73860;48.866;9.316;2023-12-04T11:22:50;13.70;;;7.40;;
83290;SDS011;73860;48.866;9.316;2023-12-04T11:25:20;11.10;;;6.50;;
83290;SDS011;73860;48.866;9.316;2023-12-04T11:27:51;14.10;;;7.00;;
83290;SDS011;73860;48.866;9.316;2023-12-04T11:30:20;15.80;;;7.90;;
83290;SDS011;73860;48.866;9.316;2023-12-04T11:32:49;14.30;;;7.80;;
83290;SDS011;73860;48.866;9.316;2023-12-04T11:35:24;12.60;;;7.70;;
83290;SDS011;73860;48.866;9.316;2023-12-04T11:37:54;14.00;;;7.40;;
83290;SDS011;73860;48.866;9.316;2023-12-04T11:40:23;13.20;;;7.10;;
83290;SDS011;73860;48.866;9.316;2023-12-04T11:42:53;15.00;;;8.40;;
83290;SDS011;73860;48.866;9.316;2023-12-04T11:45:22;12.80;;;7.50;;
83290;SDS011;73860;48.866;9.316;2023-12-04T11:47:54;14.70;;;7.90;;
83290;SDS011;73860;48.866;9.316;2023-12-04T11:50:25;12.90;;;7.50;;
83290;SDS011;73860;48.866;9.316;2023-12-04T11:52:54;13.40;;;7.70;;
83290;SDS011;73860;48.866;9.316;2023-12-04T11:55:25;17.10;;;8.50;;
83290;SDS011;73860;48.866;9.316;2023-12-04T11:57:55;16.40;;;7.60;;
83290;SDS011;73860;48.866;9.316;2023-12-04T12:04:02;13.70;;;7.80;;
83290;SDS011;73860;48.866;9.316;2023-12-04T12:06:33;15.50;;;7.50;;
83290;SDS011;73860;48.866;9.316;2023-12-04T12:09:02;12.10;;;6.40;;
83290;SDS011;73860;48.866;9.316;2023-12-04T12:11:33;18.50;;;10.30;;
83290;SDS011;73860;48.866;9.316;2023-12-04T12:14:02;14.80;;;8.20;;
83290;SDS011;73860;48.866;9.316;2023-12-04T12:16:32;13.50;;;7.50;;
83290;SDS011;73860;48.866;9.316;2023-12-04T12:19:02;15.20;;;8.50;;
83290;SDS011;73860;48.866;9.316;2023-12-04T12:21:31;15.00;;;8.10;;
83290;SDS011;73860;48.866;9.316;2023-12-04T12:24:00;15.40;;;9.10;;
83290;SDS011;73860;48.866;9.316;2023-12-04T12:26:30;15.20;;;8.90;;
83290;SDS011;73860;48.866;9.316;2023-12-04T12:28:59;16.90;;;9.10;;
83290;SDS011;73860;48.866;9.316;2023-12-04T12:31:28;17.80;;;8.70;;
83290;SDS011;73860;48.866;9.316;2023-12-04T12:33:57;15.00;;;8.20;;
83290;SDS011;73860;48.866;9.316;2023-12-04T12:36:26;14.50;;;8.50;;
83290;SDS011;73860;48.866;9.316;2023-12-04T12:38:55;14.90;;;9.00;;
83290;SDS011;73860;48.866;9.316;2023-12-04T12:41:24;13.20;;;8.50;;
83290;SDS011;73860;48.866;9.316;2023-12-04T12:43:54;13.70;;;8.10;;
83290;SDS011;73860;48.866;9.316;2023-12-04T12:46:23;13.60;;;8.10;;
83290;SDS011;73860;48.866;9.316;2023-12-04T12:48:52;15.60;;;9.50;;
83290;SDS011;73860;48.866;9.316;2023-12-04T12:51:22;16.30;;;9.00;;
83290;SDS011;73860;48.866;9.316;2023-12-04T12:53:53;12.90;;;7.70;;
83290;SDS011;73860;48.866;9.316;2023-12-04T12:56:22;15.90;;;9.00;;
83290;SDS011;73860;48.866;9.316;2023-12-04T12:58:51;15.70;;;9.10;;
83290;SDS011;73860;48.866;9.316;2023-12-04T13:01:23;15.10;;;8.50;;
83290;SDS011;73860;48.866;9.316;2023-12-04T13:03:52;14.70;;;8.10;;
83290;SDS011;73860;48.866;9.316;2023-12-04T13:06:22;15.00;;;8.20;;
83290;SDS011;73860;48.866;9.316;2023-12-04T13:08:51;15.00;;;8.60;;
83290;SDS011;73860;48.866;9.316;2023-12-04T13:11:21;16.90;;;8.80;;
83290;SDS011;73860;48.866;9.316;2023-12-04T13:13:50;13.60;;;8.40;;
83290;SDS011;73860;48.866;9.316;2023-12-04T13:16:20;16.20;;;9.80;;
83290;SDS011;73860;48.866;9.316;2023-12-04T13:18:49;16.60;;;10.00;;
83290;SDS011;73860;48.866;9.316;2023-12-04T13:21:18;16.40;;;9.40;;
83290;SDS011;73860;48.866;9.316;2023-12-04T13:23:47;15.00;;;9.40;;
83290;SDS011;73860;48.866;9.316;2023-12-04T13:26:17;21.60;;;11.30;;
83290;SDS011;73860;48.866;9.316;2023-12-04T13:28:46;19.30;;;12.30;;
83290;SDS011;73860;48.866;9.316;2023-12-04T13:31:16;21.80;;;11.50;;
83290;SDS011;73860;48.866;9.316;2023-12-04T13:33:46;20.50;;;11.50;;
83290;SDS011;73860;48.866;9.316;2023-12-04T13:36:16;18.20;;;10.30;;
83290;SDS011;73860;48.866;9.316;2023-12-04T13:38:45;18.40;;;11.50;;
83290;SDS011;73860;48.866;9.316;2023-12-04T13:41:14;20.70;;;11.50;;
83290;SDS011;73860;48.866;9.316;2023-12-04T13:44:06;20.40;;;11.20;;
83290;SDS011;73860;48.866;9.316;2023-12-04T13:46:35;17.90;;;10.50;;
83290;SDS011;73860;48.866;9.316;2023-12-04T13:49:04;20.70;;;11.90;;
83290;SDS011;73860;48.866;9.316;2023-12-04T13:51:33;17.20;;;10.30;;
83290;SDS011;73860;48.866;9.316;2023-12-04T13:54:06;21.90;;;11.60;;
83290;SDS011;73860;48.866;9.316;2023-12-04T13:56:47;19.20;;;10.20;;
83290;SDS011;73860;48.866;9.316;2023-12-04T13:59:20;16.30;;;10.00;;
83290;SDS011;73860;48.866;9.316;2023-12-04T14:01:51;17.80;;;10.20;;
83290;SDS011;73860;48.866;9.316;2023-12-04T14:04:26;19.00;;;11.30;;
83290;SDS011;73860;48.866;9.316;2023-12-04T14:06:55;18.30;;;11.30;;
83290;SDS011;73860;48.866;9.316;2023-12-04T14:09:24;17.30;;;9.80;;
83290;SDS011;73860;48.866;9.316;2023-12-04T14:11:53;17.30;;;9.90;;
83290;SDS011;73860;48.866;9.316;2023-12-04T14:14:23;18.10;;;10.20;;
83290;SDS011;73860;48.866;9.316;2023-12-04T14:16:52;17.80;;;10.20;;
83290;SDS011;73860;48.866;9.316;2023-12-04T14:19:21;17.10;;;10.50;;
83290;SDS011;73860;48.866;9.316;2023-12-04T14:21:50;19.30;;;11.30;;
83290;SDS011;73860;48.866;9.316;2023-12-04T14:24:19;17.10;;;10.20;;
83290;SDS011;73860;48.866;9.316;2023-12-04T14:26:49;19.10;;;10.20;;
83290;SDS011;73860;48.866;9.316;2023-12-04T14:29:19;18.50;;;11.30;;
83290;SDS011;73860;48.866;9.316;2023-12-04T14:31:48;21.70;;;12.50;;
83290;SDS011;73860;48.866;9.316;2023-12-04T14:34:18;18.00;;;11.50;;
83290;SDS011;73860;48.866;9.316;2023-12-04T14:36:47;17.60;;;10.10;;
83290;SDS011;73860;48.866;9.316;2023-12-04T14:39:16;18.50;;;10.60;;
83290;SDS011;73860;48.866;9.316;2023-12-04T14:41:45;17.30;;;10.30;;
83290;SDS011;73860;48.866;9.316;2023-12-04T14:44:15;15.40;;;9.80;;
83290;SDS011;73860;48.866;9.316;2023-12-04T14:46:44;16.80;;;10.60;;
83290;SDS011;73860;48.866;9.316;2023-12-04T14:49:13;18.10;;;10.70;;
83290;SDS011;73860;48.866;9.316;2023-12-04T14:51:42;16.20;;;9.40;;
83290;SDS011;73860;48.866;9.316;2023-12-04T14:56:47;16.90;;;8.80;;
83290;SDS011;73860;48.866;9.316;2023-12-04T14:59:34;16.10;;;10.10;;
83290;SDS011;73860;48.866;9.316;2023-12-04T15:02:21;15.80;;;8.70;;
83290;SDS011;73860;48.866;9.316;2023-12-04T15:05:08;15.30;;;9.00;;